ΕΜΥ, Εθνική Μετεωρολογική Υπηρεσία - Δελτία Καιρού, Προγνώσεις

ΑΕΡΟΝΑΥΤΙΛΙΑ

GREEK AIRPORTS CODES

LGTT 172200Z AUTO 03004KT 340V110 //// // ////// M01/M06 Q1015 RE//=

EUROPEAN AIRPORTS CODES

LFPO 172130Z 25004KT 9999 BKN030 04/02 Q1028 NOSIG=